Coban, Guatemala
Current Conditions -  °F | °C
As of 12:00 AM on Thursday 27 Nov 2014 (Local Time) from MGGT Reporting Station
Few Clouds Few Clouds  
Wind Chill: 55°   Ceiling: Unl
Heat Index: 55°   Visibility: 6mi
Dew Point: 50°   Wind: 21mph
Humidity: 82%   Direction: 360°N
Pressure: 30.36"   Gusts: NA
Location:  15.47°N, 90.38°W
Report Text: MGGT 270600Z 36018KT 9999 FEW016 13/10 Q1028 A3036
Loading
Personal Weather Stations






























Interactive Weather Map New forecast layout! Learn more

10-Day Weather Forecast

Advertisements
Track Severe Weather on mobile